sensor_id;sensor_type;location;lat;lon;timestamp;P1;durP1;ratioP1;P2;durP2;ratioP2
2548;SDS011;1284;53.520;10.248;2022-09-13T00:00:51;2.58;;;1.60;;
2548;SDS011;1284;53.520;10.248;2022-09-13T00:03:18;1.73;;;1.30;;
2548;SDS011;1284;53.520;10.248;2022-09-13T00:05:45;2.65;;;1.60;;
2548;SDS011;1284;53.520;10.248;2022-09-13T00:08:11;3.33;;;1.60;;
2548;SDS011;1284;53.520;10.248;2022-09-13T00:10:37;3.67;;;1.45;;
2548;SDS011;1284;53.520;10.248;2022-09-13T00:13:04;2.58;;;1.65;;
2548;SDS011;1284;53.520;10.248;2022-09-13T00:15:31;2.30;;;1.67;;
2548;SDS011;1284;53.520;10.248;2022-09-13T00:17:56;2.75;;;1.70;;
2548;SDS011;1284;53.520;10.248;2022-09-13T00:20:22;2.88;;;1.80;;
2548;SDS011;1284;53.520;10.248;2022-09-13T00:22:48;2.47;;;1.30;;
2548;SDS011;1284;53.520;10.248;2022-09-13T00:25:13;2.70;;;1.88;;
2548;SDS011;1284;53.520;10.248;2022-09-13T00:27:38;2.20;;;1.48;;
2548;SDS011;1284;53.520;10.248;2022-09-13T00:30:04;1.50;;;1.30;;
2548;SDS011;1284;53.520;10.248;2022-09-13T00:32:32;3.22;;;1.60;;
2548;SDS011;1284;53.520;10.248;2022-09-13T00:34:59;2.20;;;1.67;;
2548;SDS011;1284;53.520;10.248;2022-09-13T00:37:25;2.28;;;1.25;;
2548;SDS011;1284;53.520;10.248;2022-09-13T00:39:51;2.25;;;1.70;;
2548;SDS011;1284;53.520;10.248;2022-09-13T00:42:16;1.85;;;1.50;;
2548;SDS011;1284;53.520;10.248;2022-09-13T00:47:22;2.10;;;1.40;;
2548;SDS011;1284;53.520;10.248;2022-09-13T00:50:30;2.08;;;1.63;;
2548;SDS011;1284;53.520;10.248;2022-09-13T00:52:54;2.17;;;1.50;;
2548;SDS011;1284;53.520;10.248;2022-09-13T00:56:10;2.88;;;1.40;;
2548;SDS011;1284;53.520;10.248;2022-09-13T00:58:15;5.13;;;1.92;;
2548;SDS011;1284;53.520;10.248;2022-09-13T01:00:44;2.13;;;1.50;;
2548;SDS011;1284;53.520;10.248;2022-09-13T01:03:11;2.05;;;1.10;;
2548;SDS011;1284;53.520;10.248;2022-09-13T01:05:41;1.80;;;1.50;;
2548;SDS011;1284;53.520;10.248;2022-09-13T01:08:11;1.90;;;1.50;;
2548;SDS011;1284;53.520;10.248;2022-09-13T01:10:44;4.30;;;1.60;;
2548;SDS011;1284;53.520;10.248;2022-09-13T01:13:12;1.70;;;1.50;;
2548;SDS011;1284;53.520;10.248;2022-09-13T01:15:42;2.67;;;1.50;;
2548;SDS011;1284;53.520;10.248;2022-09-13T01:18:08;4.25;;;1.80;;
2548;SDS011;1284;53.520;10.248;2022-09-13T01:26:13;3.72;;;1.83;;
2548;SDS011;1284;53.520;10.248;2022-09-13T01:28:51;3.45;;;1.80;;
2548;SDS011;1284;53.520;10.248;2022-09-13T01:48:20;2.90;;;1.77;;
2548;SDS011;1284;53.520;10.248;2022-09-13T01:56:34;2.85;;;1.73;;
2548;SDS011;1284;53.520;10.248;2022-09-13T01:59:23;3.28;;;1.85;;
2548;SDS011;1284;53.520;10.248;2022-09-13T02:02:03;2.95;;;2.10;;
2548;SDS011;1284;53.520;10.248;2022-09-13T02:04:40;2.92;;;1.70;;
2548;SDS011;1284;53.520;10.248;2022-09-13T02:09:46;2.67;;;1.98;;
2548;SDS011;1284;53.520;10.248;2022-09-13T02:12:19;3.75;;;1.75;;
2548;SDS011;1284;53.520;10.248;2022-09-13T02:14:56;5.07;;;1.90;;
2548;SDS011;1284;53.520;10.248;2022-09-13T02:17:27;7.32;;;1.88;;
2548;SDS011;1284;53.520;10.248;2022-09-13T02:20:00;3.78;;;2.08;;
2548;SDS011;1284;53.520;10.248;2022-09-13T02:22:35;2.70;;;1.70;;
2548;SDS011;1284;53.520;10.248;2022-09-13T02:25:07;3.13;;;1.80;;
2548;SDS011;1284;53.520;10.248;2022-09-13T02:27:36;2.90;;;1.70;;
2548;SDS011;1284;53.520;10.248;2022-09-13T02:30:05;2.75;;;1.92;;
2548;SDS011;1284;53.520;10.248;2022-09-13T02:35:16;3.00;;;1.80;;
2548;SDS011;1284;53.520;10.248;2022-09-13T02:37:46;4.18;;;2.10;;
2548;SDS011;1284;53.520;10.248;2022-09-13T02:40:17;2.58;;;1.60;;
2548;SDS011;1284;53.520;10.248;2022-09-13T02:42:53;2.55;;;1.83;;
2548;SDS011;1284;53.520;10.248;2022-09-13T02:45:28;3.33;;;1.80;;
2548;SDS011;1284;53.520;10.248;2022-09-13T02:48:18;3.50;;;2.05;;
2548;SDS011;1284;53.520;10.248;2022-09-13T02:50:56;2.03;;;1.75;;
2548;SDS011;1284;53.520;10.248;2022-09-13T02:58:44;2.95;;;1.90;;
2548;SDS011;1284;53.520;10.248;2022-09-13T03:01:15;6.50;;;1.92;;
2548;SDS011;1284;53.520;10.248;2022-09-13T03:03:41;4.60;;;2.38;;
2548;SDS011;1284;53.520;10.248;2022-09-13T03:06:06;3.42;;;2.40;;
2548;SDS011;1284;53.520;10.248;2022-09-13T03:08:32;2.80;;;1.75;;
2548;SDS011;1284;53.520;10.248;2022-09-13T03:19:33;5.45;;;1.95;;
2548;SDS011;1284;53.520;10.248;2022-09-13T03:22:17;3.97;;;2.13;;
2548;SDS011;1284;53.520;10.248;2022-09-13T03:25:07;3.55;;;2.20;;
2548;SDS011;1284;53.520;10.248;2022-09-13T03:27:40;3.15;;;1.80;;
2548;SDS011;1284;53.520;10.248;2022-09-13T03:30:16;4.35;;;2.30;;
2548;SDS011;1284;53.520;10.248;2022-09-13T03:37:54;3.22;;;2.20;;
2548;SDS011;1284;53.520;10.248;2022-09-13T03:40:37;5.75;;;2.15;;
2548;SDS011;1284;53.520;10.248;2022-09-13T03:45:47;4.00;;;2.05;;
2548;SDS011;1284;53.520;10.248;2022-09-13T03:48:16;4.50;;;2.40;;
2548;SDS011;1284;53.520;10.248;2022-09-13T03:50:44;3.55;;;2.17;;
2548;SDS011;1284;53.520;10.248;2022-09-13T03:53:12;4.57;;;2.70;;
2548;SDS011;1284;53.520;10.248;2022-09-13T03:55:43;6.43;;;2.35;;
2548;SDS011;1284;53.520;10.248;2022-09-13T03:58:10;3.55;;;2.50;;
2548;SDS011;1284;53.520;10.248;2022-09-13T04:00:40;3.75;;;2.10;;
2548;SDS011;1284;53.520;10.248;2022-09-13T04:03:06;5.07;;;2.88;;
2548;SDS011;1284;53.520;10.248;2022-09-13T04:05:33;5.45;;;2.83;;
2548;SDS011;1284;53.520;10.248;2022-09-13T04:07:59;4.75;;;2.30;;
2548;SDS011;1284;53.520;10.248;2022-09-13T04:10:26;4.82;;;2.70;;
2548;SDS011;1284;53.520;10.248;2022-09-13T04:12:55;3.85;;;2.08;;
2548;SDS011;1284;53.520;10.248;2022-09-13T04:15:21;6.13;;;2.65;;
2548;SDS011;1284;53.520;10.248;2022-09-13T04:17:46;5.53;;;2.67;;
2548;SDS011;1284;53.520;10.248;2022-09-13T04:20:12;4.07;;;2.65;;
2548;SDS011;1284;53.520;10.248;2022-09-13T04:22:38;8.77;;;2.90;;
2548;SDS011;1284;53.520;10.248;2022-09-13T04:25:04;5.65;;;3.08;;
2548;SDS011;1284;53.520;10.248;2022-09-13T04:27:31;4.60;;;2.72;;
2548;SDS011;1284;53.520;10.248;2022-09-13T04:29:56;8.82;;;3.22;;
2548;SDS011;1284;53.520;10.248;2022-09-13T04:32:21;6.53;;;3.00;;
2548;SDS011;1284;53.520;10.248;2022-09-13T04:34:47;4.68;;;2.30;;
2548;SDS011;1284;53.520;10.248;2022-09-13T04:37:13;6.28;;;2.80;;
2548;SDS011;1284;53.520;10.248;2022-09-13T04:39:38;5.25;;;2.75;;
2548;SDS011;1284;53.520;10.248;2022-09-13T04:42:04;5.63;;;2.92;;
2548;SDS011;1284;53.520;10.248;2022-09-13T04:44:31;6.18;;;3.15;;
2548;SDS011;1284;53.520;10.248;2022-09-13T04:46:57;4.97;;;3.17;;
2548;SDS011;1284;53.520;10.248;2022-09-13T04:49:24;7.93;;;3.40;;
2548;SDS011;1284;53.520;10.248;2022-09-13T04:51:49;5.63;;;3.08;;
2548;SDS011;1284;53.520;10.248;2022-09-13T04:54:15;8.35;;;3.78;;
2548;SDS011;1284;53.520;10.248;2022-09-13T04:56:40;5.60;;;2.83;;
2548;SDS011;1284;53.520;10.248;2022-09-13T04:59:06;5.78;;;2.83;;
2548;SDS011;1284;53.520;10.248;2022-09-13T05:01:32;6.18;;;3.45;;
2548;SDS011;1284;53.520;10.248;2022-09-13T05:03:57;6.85;;;3.47;;
2548;SDS011;1284;53.520;10.248;2022-09-13T05:06:22;9.40;;;3.25;;
2548;SDS011;1284;53.520;10.248;2022-09-13T05:08:52;5.20;;;3.00;;
2548;SDS011;1284;53.520;10.248;2022-09-13T05:11:19;7.95;;;3.45;;
2548;SDS011;1284;53.520;10.248;2022-09-13T05:13:49;7.13;;;3.67;;
2548;SDS011;1284;53.520;10.248;2022-09-13T05:16:29;7.05;;;3.30;;
2548;SDS011;1284;53.520;10.248;2022-09-13T05:18:56;7.65;;;3.45;;
2548;SDS011;1284;53.520;10.248;2022-09-13T05:21:22;8.82;;;3.97;;
2548;SDS011;1284;53.520;10.248;2022-09-13T05:23:48;6.05;;;3.13;;
2548;SDS011;1284;53.520;10.248;2022-09-13T05:26:15;7.15;;;3.95;;
2548;SDS011;1284;53.520;10.248;2022-09-13T05:28:41;6.18;;;3.15;;
2548;SDS011;1284;53.520;10.248;2022-09-13T05:31:20;9.55;;;4.13;;
2548;SDS011;1284;53.520;10.248;2022-09-13T05:33:53;7.40;;;3.85;;
2548;SDS011;1284;53.520;10.248;2022-09-13T05:36:23;8.77;;;4.13;;
2548;SDS011;1284;53.520;10.248;2022-09-13T05:38:49;8.95;;;3.97;;
2548;SDS011;1284;53.520;10.248;2022-09-13T05:41:19;8.63;;;3.83;;
2548;SDS011;1284;53.520;10.248;2022-09-13T05:43:45;10.25;;;3.83;;
2548;SDS011;1284;53.520;10.248;2022-09-13T05:46:11;8.00;;;4.13;;
2548;SDS011;1284;53.520;10.248;2022-09-13T05:48:39;7.85;;;4.15;;
2548;SDS011;1284;53.520;10.248;2022-09-13T05:53:39;7.13;;;3.95;;
2548;SDS011;1284;53.520;10.248;2022-09-13T05:56:06;10.77;;;4.32;;
2548;SDS011;1284;53.520;10.248;2022-09-13T05:58:33;9.52;;;4.28;;
2548;SDS011;1284;53.520;10.248;2022-09-13T06:01:03;6.78;;;3.70;;
2548;SDS011;1284;53.520;10.248;2022-09-13T06:03:29;10.30;;;4.40;;
2548;SDS011;1284;53.520;10.248;2022-09-13T06:05:55;12.32;;;4.53;;
2548;SDS011;1284;53.520;10.248;2022-09-13T06:08:26;7.53;;;3.72;;
2548;SDS011;1284;53.520;10.248;2022-09-13T06:10:54;13.25;;;4.55;;
2548;SDS011;1284;53.520;10.248;2022-09-13T06:13:21;10.18;;;4.38;;
2548;SDS011;1284;53.520;10.248;2022-09-13T06:15:46;8.88;;;3.88;;
2548;SDS011;1284;53.520;10.248;2022-09-13T06:18:12;7.25;;;3.88;;
2548;SDS011;1284;53.520;10.248;2022-09-13T06:20:37;9.48;;;4.18;;
2548;SDS011;1284;53.520;10.248;2022-09-13T06:23:02;8.80;;;3.95;;
2548;SDS011;1284;53.520;10.248;2022-09-13T06:25:28;10.48;;;4.57;;
2548;SDS011;1284;53.520;10.248;2022-09-13T06:27:53;10.35;;;4.13;;
2548;SDS011;1284;53.520;10.248;2022-09-13T06:30:19;8.07;;;4.20;;
2548;SDS011;1284;53.520;10.248;2022-09-13T06:32:44;14.05;;;4.72;;
2548;SDS011;1284;53.520;10.248;2022-09-13T06:35:09;12.10;;;5.05;;
2548;SDS011;1284;53.520;10.248;2022-09-13T06:37:35;10.82;;;4.22;;
2548;SDS011;1284;53.520;10.248;2022-09-13T06:40:01;8.40;;;4.15;;
2548;SDS011;1284;53.520;10.248;2022-09-13T06:42:29;10.43;;;4.28;;
2548;SDS011;1284;53.520;10.248;2022-09-13T06:44:56;8.50;;;3.90;;
2548;SDS011;1284;53.520;10.248;2022-09-13T06:47:21;7.57;;;3.70;;
2548;SDS011;1284;53.520;10.248;2022-09-13T06:49:47;10.18;;;4.55;;
2548;SDS011;1284;53.520;10.248;2022-09-13T06:52:12;10.45;;;4.57;;
2548;SDS011;1284;53.520;10.248;2022-09-13T06:54:38;10.63;;;4.68;;
2548;SDS011;1284;53.520;10.248;2022-09-13T06:57:03;12.38;;;4.40;;
2548;SDS011;1284;53.520;10.248;2022-09-13T06:59:29;12.95;;;5.10;;
2548;SDS011;1284;53.520;10.248;2022-09-13T07:01:54;12.07;;;4.90;;
2548;SDS011;1284;53.520;10.248;2022-09-13T07:04:21;8.82;;;4.55;;
2548;SDS011;1284;53.520;10.248;2022-09-13T07:06:47;11.02;;;5.32;;
2548;SDS011;1284;53.520;10.248;2022-09-13T07:09:15;11.18;;;4.47;;
2548;SDS011;1284;53.520;10.248;2022-09-13T07:11:42;12.80;;;4.72;;
2548;SDS011;1284;53.520;10.248;2022-09-13T07:14:11;9.50;;;4.55;;
2548;SDS011;1284;53.520;10.248;2022-09-13T07:16:37;10.05;;;4.30;;
2548;SDS011;1284;53.520;10.248;2022-09-13T07:19:09;9.65;;;4.15;;
2548;SDS011;1284;53.520;10.248;2022-09-13T07:21:37;11.73;;;4.75;;
2548;SDS011;1284;53.520;10.248;2022-09-13T07:24:03;9.93;;;4.43;;
2548;SDS011;1284;53.520;10.248;2022-09-13T07:26:29;8.45;;;4.38;;
2548;SDS011;1284;53.520;10.248;2022-09-13T07:28:56;13.85;;;5.20;;
2548;SDS011;1284;53.520;10.248;2022-09-13T07:31:31;6.68;;;3.17;;
2548;SDS011;1284;53.520;10.248;2022-09-13T07:33:59;8.20;;;3.72;;
2548;SDS011;1284;53.520;10.248;2022-09-13T07:36:27;10.68;;;4.10;;
2548;SDS011;1284;53.520;10.248;2022-09-13T07:38:54;8.23;;;3.72;;
2548;SDS011;1284;53.520;10.248;2022-09-13T07:41:20;7.47;;;3.75;;
2548;SDS011;1284;53.520;10.248;2022-09-13T07:43:47;11.68;;;3.85;;
2548;SDS011;1284;53.520;10.248;2022-09-13T07:46:14;7.63;;;3.70;;
2548;SDS011;1284;53.520;10.248;2022-09-13T07:48:45;7.85;;;3.50;;
2548;SDS011;1284;53.520;10.248;2022-09-13T07:51:12;8.48;;;3.75;;
2548;SDS011;1284;53.520;10.248;2022-09-13T07:53:40;7.53;;;3.53;;
2548;SDS011;1284;53.520;10.248;2022-09-13T07:56:12;5.30;;;3.00;;
2548;SDS011;1284;53.520;10.248;2022-09-13T07:58:42;8.07;;;3.20;;
2548;SDS011;1284;53.520;10.248;2022-09-13T08:01:15;6.28;;;3.05;;
2548;SDS011;1284;53.520;10.248;2022-09-13T08:03:44;6.47;;;2.85;;
2548;SDS011;1284;53.520;10.248;2022-09-13T08:06:14;7.30;;;2.63;;
2548;SDS011;1284;53.520;10.248;2022-09-13T08:08:39;7.38;;;2.67;;
2548;SDS011;1284;53.520;10.248;2022-09-13T08:11:05;5.45;;;3.05;;
2548;SDS011;1284;53.520;10.248;2022-09-13T08:13:31;6.68;;;2.65;;
2548;SDS011;1284;53.520;10.248;2022-09-13T08:16:04;3.47;;;2.30;;
2548;SDS011;1284;53.520;10.248;2022-09-13T08:18:30;4.13;;;2.00;;
2548;SDS011;1284;53.520;10.248;2022-09-13T08:20:57;5.43;;;2.50;;
2548;SDS011;1284;53.520;10.248;2022-09-13T08:23:23;6.53;;;2.25;;
2548;SDS011;1284;53.520;10.248;2022-09-13T08:25:49;5.22;;;2.05;;
2548;SDS011;1284;53.520;10.248;2022-09-13T08:28:15;5.60;;;2.70;;
2548;SDS011;1284;53.520;10.248;2022-09-13T08:30:45;3.50;;;2.07;;
2548;SDS011;1284;53.520;10.248;2022-09-13T08:33:13;3.90;;;1.77;;
2548;SDS011;1284;53.520;10.248;2022-09-13T08:35:38;4.13;;;2.10;;
2548;SDS011;1284;53.520;10.248;2022-09-13T08:38:04;5.50;;;1.95;;
2548;SDS011;1284;53.520;10.248;2022-09-13T08:40:31;5.22;;;2.15;;
2548;SDS011;1284;53.520;10.248;2022-09-13T08:45:28;2.90;;;1.60;;
2548;SDS011;1284;53.520;10.248;2022-09-13T08:50:34;1.80;;;1.42;;
2548;SDS011;1284;53.520;10.248;2022-09-13T08:56:05;1.35;;;1.00;;
2548;SDS011;1284;53.520;10.248;2022-09-13T09:06:39;3.13;;;0.82;;
2548;SDS011;1284;53.520;10.248;2022-09-13T09:09:07;2.72;;;0.90;;
2548;SDS011;1284;53.520;10.248;2022-09-13T09:11:47;2.42;;;1.20;;
2548;SDS011;1284;53.520;10.248;2022-09-13T09:17:21;1.80;;;0.57;;
2548;SDS011;1284;53.520;10.248;2022-09-13T09:19:53;1.73;;;0.40;;
2548;SDS011;1284;53.520;10.248;2022-09-13T09:22:30;1.17;;;0.40;;
2548;SDS011;1284;53.520;10.248;2022-09-13T09:24:58;0.80;;;0.30;;
2548;SDS011;1284;53.520;10.248;2022-09-13T09:27:24;1.25;;;0.70;;
2548;SDS011;1284;53.520;10.248;2022-09-13T09:29:51;4.97;;;0.30;;
2548;SDS011;1284;53.520;10.248;2022-09-13T09:35:11;0.43;;;0.10;;
2548;SDS011;1284;53.520;10.248;2022-09-13T09:37:43;0.85;;;0.25;;
2548;SDS011;1284;53.520;10.248;2022-09-13T09:40:14;2.20;;;0.40;;
2548;SDS011;1284;53.520;10.248;2022-09-13T09:42:45;0.32;;;0.20;;
2548;SDS011;1284;53.520;10.248;2022-09-13T09:47:52;2.53;;;0.40;;
2548;SDS011;1284;53.520;10.248;2022-09-13T09:50:26;1.42;;;0.30;;
2548;SDS011;1284;53.520;10.248;2022-09-13T09:58:12;3.17;;;0.40;;
2548;SDS011;1284;53.520;10.248;2022-09-13T10:00:52;3.35;;;0.30;;
2548;SDS011;1284;53.520;10.248;2022-09-13T10:03:23;1.35;;;0.10;;
2548;SDS011;1284;53.520;10.248;2022-09-13T10:06:08;2.05;;;0.40;;
2548;SDS011;1284;53.520;10.248;2022-09-13T10:08:37;0.10;;;0.10;;
2548;SDS011;1284;53.520;10.248;2022-09-13T10:11:05;0.55;;;0.15;;
2548;SDS011;1284;53.520;10.248;2022-09-13T10:13:31;0.43;;;0.20;;
2548;SDS011;1284;53.520;10.248;2022-09-13T10:16:01;0.20;;;0.20;;
2548;SDS011;1284;53.520;10.248;2022-09-13T10:18:32;0.28;;;0.20;;
2548;SDS011;1284;53.520;10.248;2022-09-13T10:21:01;0.65;;;0.20;;
2548;SDS011;1284;53.520;10.248;2022-09-13T10:23:29;0.10;;;0.10;;
2548;SDS011;1284;53.520;10.248;2022-09-13T10:28:21;0.38;;;0.10;;
2548;SDS011;1284;53.520;10.248;2022-09-13T10:30:53;0.52;;;0.20;;
2548;SDS011;1284;53.520;10.248;2022-09-13T10:35:51;0.10;;;0.10;;
2548;SDS011;1284;53.520;10.248;2022-09-13T10:38:39;2.88;;;0.43;;
2548;SDS011;1284;53.520;10.248;2022-09-13T10:41:08;1.20;;;0.17;;
2548;SDS011;1284;53.520;10.248;2022-09-13T10:43:35;0.20;;;0.00;;
2548;SDS011;1284;53.520;10.248;2022-09-13T10:46:03;1.85;;;0.50;;
2548;SDS011;1284;53.520;10.248;2022-09-13T10:48:45;0.90;;;0.20;;
2548;SDS011;1284;53.520;10.248;2022-09-13T10:51:22;0.10;;;0.03;;
2548;SDS011;1284;53.520;10.248;2022-09-13T10:54:11;0.28;;;0.10;;
2548;SDS011;1284;53.520;10.248;2022-09-13T10:56:42;1.52;;;0.10;;
2548;SDS011;1284;53.520;10.248;2022-09-13T10:59:19;1.25;;;0.22;;
2548;SDS011;1284;53.520;10.248;2022-09-13T11:07:27;0.13;;;0.10;;
2548;SDS011;1284;53.520;10.248;2022-09-13T11:12:55;0.10;;;0.05;;
2548;SDS011;1284;53.520;10.248;2022-09-13T11:15:42;0.25;;;0.08;;
2548;SDS011;1284;53.520;10.248;2022-09-13T11:29:22;0.40;;;0.20;;
2548;SDS011;1284;53.520;10.248;2022-09-13T11:31:58;0.77;;;0.10;;
2548;SDS011;1284;53.520;10.248;2022-09-13T11:45:55;1.60;;;0.15;;
2548;SDS011;1284;53.520;10.248;2022-09-13T11:51:11;0.52;;;0.17;;
2548;SDS011;1284;53.520;10.248;2022-09-13T11:56:12;0.28;;;0.15;;
2548;SDS011;1284;53.520;10.248;2022-09-13T11:58:46;2.10;;;0.20;;
2548;SDS011;1284;53.520;10.248;2022-09-13T12:01:12;0.10;;;0.00;;
2548;SDS011;1284;53.520;10.248;2022-09-13T12:04:46;0.10;;;0.10;;
2548;SDS011;1284;53.520;10.248;2022-09-13T12:06:53;1.00;;;0.17;;
2548;SDS011;1284;53.520;10.248;2022-09-13T12:09:46;0.17;;;0.10;;
2548;SDS011;1284;53.520;10.248;2022-09-13T12:12:19;0.47;;;0.20;;
2548;SDS011;1284;53.520;10.248;2022-09-13T12:14:59;0.80;;;0.17;;
2548;SDS011;1284;53.520;10.248;2022-09-13T12:19:55;0.63;;;0.15;;
2548;SDS011;1284;53.520;10.248;2022-09-13T12:22:25;3.95;;;0.20;;
2548;SDS011;1284;53.520;10.248;2022-09-13T12:24:55;0.20;;;0.20;;
2548;SDS011;1284;53.520;10.248;2022-09-13T12:32:49;0.25;;;0.15;;
2548;SDS011;1284;53.520;10.248;2022-09-13T12:41:03;0.95;;;0.22;;
2548;SDS011;1284;53.520;10.248;2022-09-13T12:58:20;0.82;;;0.20;;
2548;SDS011;1284;53.520;10.248;2022-09-13T13:03:21;1.27;;;0.52;;
2548;SDS011;1284;53.520;10.248;2022-09-13T13:05:55;0.35;;;0.20;;
2548;SDS011;1284;53.520;10.248;2022-09-13T13:08:33;2.15;;;0.38;;
2548;SDS011;1284;53.520;10.248;2022-09-13T13:11:01;2.40;;;0.25;;
2548;SDS011;1284;53.520;10.248;2022-09-13T13:13:33;3.53;;;0.20;;
2548;SDS011;1284;53.520;10.248;2022-09-13T13:16:00;0.30;;;0.10;;
2548;SDS011;1284;53.520;10.248;2022-09-13T13:19:25;1.85;;;0.10;;
2548;SDS011;1284;53.520;10.248;2022-09-13T13:26:47;0.17;;;0.10;;
2548;SDS011;1284;53.520;10.248;2022-09-13T13:31:46;0.55;;;0.22;;
2548;SDS011;1284;53.520;10.248;2022-09-13T13:37:18;1.27;;;0.28;;
2548;SDS011;1284;53.520;10.248;2022-09-13T13:39:47;0.57;;;0.30;;
2548;SDS011;1284;53.520;10.248;2022-09-13T13:42:34;0.00;;;0.00;;
2548;SDS011;1284;53.520;10.248;2022-09-13T13:45:13;2.35;;;0.17;;
2548;SDS011;1284;53.520;10.248;2022-09-13T13:47:54;0.80;;;0.10;;
2548;SDS011;1284;53.520;10.248;2022-09-13T13:50:31;4.78;;;0.25;;
2548;SDS011;1284;53.520;10.248;2022-09-13T13:52:57;2.20;;;0.98;;
2548;SDS011;1284;53.520;10.248;2022-09-13T14:00:49;0.20;;;0.17;;
2548;SDS011;1284;53.520;10.248;2022-09-13T14:03:21;1.48;;;0.28;;
2548;SDS011;1284;53.520;10.248;2022-09-13T14:05:53;1.90;;;0.17;;
2548;SDS011;1284;53.520;10.248;2022-09-13T14:11:07;1.05;;;0.30;;
2548;SDS011;1284;53.520;10.248;2022-09-13T14:22:05;0.75;;;0.20;;
2548;SDS011;1284;53.520;10.248;2022-09-13T14:24:48;0.57;;;0.35;;
2548;SDS011;1284;53.520;10.248;2022-09-13T14:27:18;4.28;;;0.20;;
2548;SDS011;1284;53.520;10.248;2022-09-13T14:29:55;1.52;;;0.17;;
2548;SDS011;1284;53.520;10.248;2022-09-13T14:32:27;0.77;;;0.25;;
2548;SDS011;1284;53.520;10.248;2022-09-13T14:35:00;0.45;;;0.20;;
2548;SDS011;1284;53.520;10.248;2022-09-13T14:37:36;1.17;;;0.35;;
2548;SDS011;1284;53.520;10.248;2022-09-13T14:42:39;3.28;;;0.50;;
2548;SDS011;1284;53.520;10.248;2022-09-13T14:45:10;0.10;;;0.10;;
2548;SDS011;1284;53.520;10.248;2022-09-13T14:50:17;0.35;;;0.15;;
2548;SDS011;1284;53.520;10.248;2022-09-13T14:52:49;2.60;;;0.20;;
2548;SDS011;1284;53.520;10.248;2022-09-13T14:55:26;0.90;;;0.10;;
2548;SDS011;1284;53.520;10.248;2022-09-13T14:57:56;0.52;;;0.20;;
2548;SDS011;1284;53.520;10.248;2022-09-13T15:00:28;1.80;;;0.30;;
2548;SDS011;1284;53.520;10.248;2022-09-13T15:03:03;0.20;;;0.20;;
2548;SDS011;1284;53.520;10.248;2022-09-13T15:05:37;1.58;;;0.30;;
2548;SDS011;1284;53.520;10.248;2022-09-13T15:11:15;0.80;;;0.63;;
2548;SDS011;1284;53.520;10.248;2022-09-13T15:16:45;0.82;;;0.47;;
2548;SDS011;1284;53.520;10.248;2022-09-13T15:21:47;5.68;;;0.22;;
2548;SDS011;1284;53.520;10.248;2022-09-13T15:24:33;2.97;;;0.22;;
2548;SDS011;1284;53.520;10.248;2022-09-13T15:27:05;6.22;;;0.20;;
2548;SDS011;1284;53.520;10.248;2022-09-13T15:29:32;3.65;;;0.38;;
2548;SDS011;1284;53.520;10.248;2022-09-13T15:32:02;5.28;;;0.20;;
2548;SDS011;1284;53.520;10.248;2022-09-13T15:34:28;2.83;;;0.30;;
2548;SDS011;1284;53.520;10.248;2022-09-13T15:37:01;2.08;;;0.40;;
2548;SDS011;1284;53.520;10.248;2022-09-13T15:39:48;0.35;;;0.20;;
2548;SDS011;1284;53.520;10.248;2022-09-13T15:42:25;1.20;;;0.20;;
2548;SDS011;1284;53.520;10.248;2022-09-13T15:44:51;1.75;;;0.20;;
2548;SDS011;1284;53.520;10.248;2022-09-13T15:47:17;0.20;;;0.20;;
2548;SDS011;1284;53.520;10.248;2022-09-13T15:49:50;0.68;;;0.15;;
2548;SDS011;1284;53.520;10.248;2022-09-13T15:52:17;0.88;;;0.25;;
2548;SDS011;1284;53.520;10.248;2022-09-13T15:54:45;2.63;;;0.20;;
2548;SDS011;1284;53.520;10.248;2022-09-13T15:57:31;1.65;;;0.25;;
2548;SDS011;1284;53.520;10.248;2022-09-13T15:59:57;1.25;;;0.40;;
2548;SDS011;1284;53.520;10.248;2022-09-13T16:02:28;3.53;;;0.25;;
2548;SDS011;1284;53.520;10.248;2022-09-13T16:04:56;0.40;;;0.10;;
2548;SDS011;1284;53.520;10.248;2022-09-13T16:07:23;1.75;;;0.28;;
2548;SDS011;1284;53.520;10.248;2022-09-13T16:09:50;0.15;;;0.10;;
2548;SDS011;1284;53.520;10.248;2022-09-13T16:12:15;2.08;;;0.30;;
2548;SDS011;1284;53.520;10.248;2022-09-13T16:14:43;1.52;;;0.43;;
2548;SDS011;1284;53.520;10.248;2022-09-13T16:17:14;0.30;;;0.13;;
2548;SDS011;1284;53.520;10.248;2022-09-13T16:19:44;0.70;;;0.43;;
2548;SDS011;1284;53.520;10.248;2022-09-13T16:22:10;0.65;;;0.10;;
2548;SDS011;1284;53.520;10.248;2022-09-13T16:24:35;2.40;;;0.35;;
2548;SDS011;1284;53.520;10.248;2022-09-13T16:27:02;0.73;;;0.40;;
2548;SDS011;1284;53.520;10.248;2022-09-13T16:29:28;0.95;;;0.17;;
2548;SDS011;1284;53.520;10.248;2022-09-13T16:31:54;0.77;;;0.20;;
2548;SDS011;1284;53.520;10.248;2022-09-13T16:34:21;2.17;;;0.38;;
2548;SDS011;1284;53.520;10.248;2022-09-13T16:36:47;0.45;;;0.20;;
2548;SDS011;1284;53.520;10.248;2022-09-13T16:39:13;0.80;;;0.10;;
2548;SDS011;1284;53.520;10.248;2022-09-13T16:41:38;1.08;;;0.28;;
2548;SDS011;1284;53.520;10.248;2022-09-13T16:44:04;0.20;;;0.10;;
2548;SDS011;1284;53.520;10.248;2022-09-13T16:46:31;0.22;;;0.10;;
2548;SDS011;1284;53.520;10.248;2022-09-13T16:48:56;0.20;;;0.20;;
2548;SDS011;1284;53.520;10.248;2022-09-13T16:51:23;0.82;;;0.20;;
2548;SDS011;1284;53.520;10.248;2022-09-13T16:53:49;0.75;;;0.20;;
2548;SDS011;1284;53.520;10.248;2022-09-13T16:56:16;4.05;;;0.57;;
2548;SDS011;1284;53.520;10.248;2022-09-13T16:58:44;0.30;;;0.10;;
2548;SDS011;1284;53.520;10.248;2022-09-13T17:01:14;1.08;;;0.20;;
2548;SDS011;1284;53.520;10.248;2022-09-13T17:03:42;0.73;;;0.20;;
2548;SDS011;1284;53.520;10.248;2022-09-13T17:06:09;1.63;;;0.20;;
2548;SDS011;1284;53.520;10.248;2022-09-13T17:08:38;0.82;;;0.25;;
2548;SDS011;1284;53.520;10.248;2022-09-13T17:11:09;0.60;;;0.40;;
2548;SDS011;1284;53.520;10.248;2022-09-13T17:16:02;1.40;;;0.28;;
2548;SDS011;1284;53.520;10.248;2022-09-13T17:18:28;0.73;;;0.20;;
2548;SDS011;1284;53.520;10.248;2022-09-13T17:20:54;0.10;;;0.10;;
2548;SDS011;1284;53.520;10.248;2022-09-13T17:23:19;0.47;;;0.10;;
2548;SDS011;1284;53.520;10.248;2022-09-13T17:25:46;2.20;;;0.20;;
2548;SDS011;1284;53.520;10.248;2022-09-13T17:28:13;2.03;;;0.35;;
2548;SDS011;1284;53.520;10.248;2022-09-13T17:30:39;3.55;;;0.20;;
2548;SDS011;1284;53.520;10.248;2022-09-13T17:33:05;0.60;;;0.20;;
2548;SDS011;1284;53.520;10.248;2022-09-13T17:35:32;0.57;;;0.13;;
2548;SDS011;1284;53.520;10.248;2022-09-13T17:37:58;0.45;;;0.20;;
2548;SDS011;1284;53.520;10.248;2022-09-13T17:40:26;1.83;;;0.50;;
2548;SDS011;1284;53.520;10.248;2022-09-13T17:42:52;2.45;;;0.30;;
2548;SDS011;1284;53.520;10.248;2022-09-13T17:45:18;0.10;;;0.10;;
2548;SDS011;1284;53.520;10.248;2022-09-13T17:47:43;0.10;;;0.10;;
2548;SDS011;1284;53.520;10.248;2022-09-13T17:50:09;1.05;;;0.20;;
2548;SDS011;1284;53.520;10.248;2022-09-13T17:52:35;0.60;;;0.28;;
2548;SDS011;1284;53.520;10.248;2022-09-13T17:55:01;0.52;;;0.10;;
2548;SDS011;1284;53.520;10.248;2022-09-13T17:57:26;2.67;;;0.57;;
2548;SDS011;1284;53.520;10.248;2022-09-13T17:59:52;0.05;;;0.05;;
2548;SDS011;1284;53.520;10.248;2022-09-13T18:02:19;0.25;;;0.25;;
2548;SDS011;1284;53.520;10.248;2022-09-13T18:04:45;0.75;;;0.10;;
2548;SDS011;1284;53.520;10.248;2022-09-13T18:07:11;4.22;;;0.30;;
2548;SDS011;1284;53.520;10.248;2022-09-13T18:09:37;0.63;;;0.20;;
2548;SDS011;1284;53.520;10.248;2022-09-13T18:12:04;0.40;;;0.30;;
2548;SDS011;1284;53.520;10.248;2022-09-13T18:14:29;3.10;;;0.38;;
2548;SDS011;1284;53.520;10.248;2022-09-13T18:16:56;0.40;;;0.28;;
2548;SDS011;1284;53.520;10.248;2022-09-13T18:19:22;0.10;;;0.10;;
2548;SDS011;1284;53.520;10.248;2022-09-13T18:21:48;0.57;;;0.20;;
2548;SDS011;1284;53.520;10.248;2022-09-13T18:24:13;1.33;;;0.20;;
2548;SDS011;1284;53.520;10.248;2022-09-13T18:26:39;0.10;;;0.00;;
2548;SDS011;1284;53.520;10.248;2022-09-13T18:29:05;0.13;;;0.05;;
2548;SDS011;1284;53.520;10.248;2022-09-13T18:31:34;0.57;;;0.30;;
2548;SDS011;1284;53.520;10.248;2022-09-13T18:34:02;1.85;;;0.47;;
2548;SDS011;1284;53.520;10.248;2022-09-13T18:36:34;0.20;;;0.20;;
2548;SDS011;1284;53.520;10.248;2022-09-13T18:39:01;1.92;;;0.30;;
2548;SDS011;1284;53.520;10.248;2022-09-13T18:41:29;0.20;;;0.20;;